Time;durP1;ratioP1;P1;durP2;ratioP2;P2;SDS_P1;SDS_P2;PMS_P1;PMS_P2;Temp;Humidity;BMP_temperature;BMP_pressure;BME280_temperature;BME280_humidity;BME280_pressure;Samples;Min_cycle;Max_cycle;Signal;HPM_P1;HPM_P2
2023/01/30 00:01:28;;;;;;;24.35;16.82;;;2.50;99.90;;;;;;1894745;75;21171;-88
2023/01/30 00:04:20;;;;;;;22.73;16.45;;;2.50;99.90;;;;;;1896000;75;21181;-89
2023/01/30 00:07:18;;;;;;;23.05;15.70;;;2.50;99.90;;;;;;1883709;76;21172;-90
2023/01/30 00:10:15;;;;;;;22.90;16.12;;;2.60;99.90;;;;;;1883451;75;21157;-90
2023/01/30 00:13:07;;;;;;;24.40;15.98;;;2.60;99.90;;;;;;1883094;75;21115;-88
2023/01/30 00:16:02;;;;;;;23.75;15.25;;;2.60;99.90;;;;;;1882330;75;21148;-88
2023/01/30 00:18:55;;;;;;;21.95;15.25;;;2.60;99.90;;;;;;1896303;75;21173;-90
2023/01/30 00:21:46;;;;;;;20.40;14.90;;;2.60;99.90;;;;;;1872194;77;21189;-88
2023/01/30 00:24:38;;;;;;;22.07;15.65;;;2.60;99.90;;;;;;1903414;75;21083;-88
2023/01/30 00:27:33;;;;;;;22.65;16.17;;;2.70;99.90;;;;;;1899479;75;21184;-88
2023/01/30 00:30:26;;;;;;;24.43;16.93;;;2.70;99.90;;;;;;1871964;75;21132;-88
2023/01/30 00:33:21;;;;;;;20.82;15.25;;;2.70;99.90;;;;;;1886419;75;21183;-88
2023/01/30 00:36:14;;;;;;;25.20;16.00;;;2.70;99.90;;;;;;1871785;77;21121;-89
2023/01/30 00:39:06;;;;;;;23.27;15.53;;;2.70;99.90;;;;;;1880242;75;21087;-87
2023/01/30 00:48:18;;;;;;;22.80;16.37;;;2.60;99.90;;;;;;1873178;75;21130;-89
2023/01/30 00:51:09;;;;;;;22.52;16.02;;;2.60;99.90;;;;;;1886841;75;21078;-88
2023/01/30 00:54:01;;;;;;;24.77;17.20;;;2.60;99.90;;;;;;1884270;75;21099;-89
2023/01/30 00:56:53;;;;;;;23.95;17.23;;;2.60;99.90;;;;;;1896339;74;21044;-89
2023/01/30 00:59:47;;;;;;;24.63;17.25;;;2.50;99.90;;;;;;1871533;77;21163;-87
2023/01/30 01:02:40;;;;;;;24.18;17.17;;;2.50;99.90;;;;;;1891563;75;21119;-88
2023/01/30 01:05:33;;;;;;;23.98;17.48;;;2.50;99.90;;;;;;1889209;75;21212;-88
2023/01/30 01:08:26;;;;;;;24.20;17.85;;;2.50;99.90;;;;;;1893516;75;21123;-88
2023/01/30 01:11:23;;;;;;;25.08;16.95;;;2.50;99.90;;;;;;1894316;75;21205;-88
2023/01/30 01:14:17;;;;;;;24.12;17.77;;;2.50;99.90;;;;;;1880744;75;21117;-88
2023/01/30 01:17:09;;;;;;;25.00;17.30;;;2.40;99.90;;;;;;1891145;75;21056;-88
2023/01/30 01:20:01;;;;;;;27.85;18.02;;;2.40;99.90;;;;;;1885576;75;21202;-89
2023/01/30 01:22:56;;;;;;;23.83;17.23;;;2.30;99.90;;;;;;1882235;75;21099;-88
2023/01/30 01:25:49;;;;;;;26.20;17.35;;;2.30;99.90;;;;;;1882262;75;21217;-89
2023/01/30 01:28:41;;;;;;;23.25;17.23;;;2.40;99.90;;;;;;1882789;75;21110;-88
2023/01/30 01:31:44;;;;;;;28.27;18.40;;;2.40;99.90;;;;;;1902757;75;21141;-88
2023/01/30 01:34:35;;;;;;;22.73;16.73;;;2.40;99.90;;;;;;1902996;75;21104;-88
2023/01/30 01:37:28;;;;;;;27.42;18.05;;;2.40;99.90;;;;;;1905439;75;21128;-88
2023/01/30 01:43:33;;;;;;;28.25;17.45;;;2.30;99.90;;;;;;1883556;76;21096;-88
2023/01/30 01:46:27;;;;;;;25.08;16.87;;;2.30;99.90;;;;;;1903835;75;21185;-88
2023/01/30 01:49:23;;;;;;;23.18;17.55;;;2.40;99.90;;;;;;1901088;75;21126;-88
2023/01/30 01:54:59;;;;;;;27.22;17.82;;;2.40;99.90;;;;;;1952496;72;22186;-88
2023/01/30 01:57:54;;;;;;;28.32;17.48;;;2.40;99.90;;;;;;1899572;74;21106;-88
2023/01/30 02:03:34;;;;;;;27.22;21.50;;;2.40;99.90;;;;;;1934956;72;27962;-89
2023/01/30 02:06:26;;;;;;;25.40;18.60;;;2.50;99.90;;;;;;1913070;74;21236;-89
2023/01/30 02:09:17;;;;;;;25.02;18.02;;;2.50;99.90;;;;;;1905665;75;21095;-89
2023/01/30 02:12:10;;;;;;;27.30;17.00;;;2.50;99.90;;;;;;1917318;75;21047;-88
2023/01/30 02:15:04;;;;;;;24.63;16.85;;;2.50;99.90;;;;;;1896167;75;21131;-89
2023/01/30 02:17:59;;;;;;;24.50;17.37;;;2.50;99.90;;;;;;1895139;75;21128;-89
2023/01/30 02:25:13;;;;;;;22.65;16.50;;;2.40;99.90;;;;;;1958085;72;22103;-89
2023/01/30 02:28:28;;;;;;;23.52;16.52;;;2.40;99.90;;;;;;1800116;77;21095;-90
2023/01/30 02:31:27;;;;;;;26.23;17.73;;;2.40;99.90;;;;;;1884530;75;21128;-89
2023/01/30 02:34:30;;;;;;;25.17;17.67;;;2.40;99.90;;;;;;1883146;75;21169;-89
2023/01/30 02:37:30;;;;;;;22.62;16.25;;;2.50;99.90;;;;;;1883385;75;21087;-90
2023/01/30 02:40:31;;;;;;;25.20;16.77;;;2.50;99.90;;;;;;1880689;75;21113;-89
2023/01/30 02:43:28;;;;;;;24.18;17.02;;;2.50;99.90;;;;;;1894123;75;21131;-88
2023/01/30 02:46:24;;;;;;;24.65;17.00;;;2.50;99.90;;;;;;1890493;75;21168;-89
2023/01/30 02:49:19;;;;;;;25.02;17.45;;;2.50;99.90;;;;;;1886115;75;21103;-88
2023/01/30 02:52:12;;;;;;;24.18;17.12;;;2.50;99.90;;;;;;1874456;75;21126;-88
2023/01/30 02:55:10;;;;;;;24.00;16.40;;;2.50;99.90;;;;;;1894725;75;21123;-88
2023/01/30 02:58:03;;;;;;;26.23;17.40;;;2.50;99.90;;;;;;1894311;75;21149;-88
2023/01/30 03:01:17;;;;;;;24.32;16.07;;;2.50;99.90;;;;;;1890580;75;21059;-88
2023/01/30 03:04:27;;;;;;;22.90;15.68;;;2.50;99.90;;;;;;1872686;76;21092;-88
2023/01/30 03:07:30;;;;;;;24.27;16.07;;;2.50;99.90;;;;;;1889055;75;21052;-88
2023/01/30 03:10:25;;;;;;;24.23;17.15;;;2.50;99.90;;;;;;1891546;75;21095;-87
2023/01/30 03:13:22;;;;;;;23.87;16.65;;;2.70;99.90;;;;;;1904977;75;21051;-88
2023/01/30 03:16:18;;;;;;;23.20;16.67;;;2.70;99.90;;;;;;1898391;75;21060;-88
2023/01/30 03:21:56;;;;;;;25.60;16.80;;;2.50;99.90;;;;;;1953878;72;22314;-88
2023/01/30 03:24:48;;;;;;;25.48;16.12;;;2.50;99.90;;;;;;1896905;75;21160;-88
2023/01/30 03:27:41;;;;;;;25.20;16.27;;;2.40;99.90;;;;;;1895354;75;21099;-88
2023/01/30 03:30:32;;;;;;;22.52;15.90;;;2.40;99.90;;;;;;1895128;75;21549;-88
2023/01/30 03:33:25;;;;;;;23.18;16.25;;;2.40;99.90;;;;;;1897315;75;21150;-87
2023/01/30 03:36:18;;;;;;;22.95;16.27;;;2.30;99.90;;;;;;1899375;75;21324;-88
2023/01/30 03:39:10;;;;;;;25.17;16.67;;;2.20;99.90;;;;;;1907947;75;21127;-87
2023/01/30 03:42:02;;;;;;;22.40;16.48;;;2.20;99.90;;;;;;1884664;76;21103;-88
2023/01/30 03:47:35;;;;;;;22.77;15.68;;;2.30;99.90;;;;;;1957731;72;22130;-88
2023/01/30 03:50:28;;;;;;;24.10;16.50;;;2.30;99.90;;;;;;1883415;75;21091;-89
2023/01/30 03:53:20;;;;;;;23.95;16.85;;;2.40;99.90;;;;;;1904988;75;21368;-88
2023/01/30 03:56:13;;;;;;;24.82;16.95;;;2.40;99.90;;;;;;1905129;75;21574;-88
2023/01/30 03:59:04;;;;;;;24.20;17.05;;;2.50;99.90;;;;;;1890486;75;21064;-89
2023/01/30 04:02:00;;;;;;;26.17;17.55;;;2.40;99.90;;;;;;1894712;75;21099;-87
2023/01/30 04:04:53;;;;;;;25.37;17.90;;;2.40;99.90;;;;;;1900302;75;21087;-88
2023/01/30 04:07:45;;;;;;;24.23;16.32;;;2.40;99.90;;;;;;1903449;75;21052;-89
2023/01/30 04:10:37;;;;;;;23.90;16.67;;;2.40;99.90;;;;;;1890699;75;21098;-88
2023/01/30 04:13:28;;;;;;;23.22;16.10;;;2.30;99.90;;;;;;1872920;76;21597;-88
2023/01/30 04:16:21;;;;;;;23.27;15.83;;;2.20;99.90;;;;;;1894117;75;21164;-88
2023/01/30 04:19:24;;;;;;;25.17;16.37;;;2.20;99.90;;;;;;1807843;74;21191;-88
2023/01/30 04:22:23;;;;;;;22.22;15.55;;;2.20;99.90;;;;;;1883300;75;21104;-89
2023/01/30 04:25:19;;;;;;;24.47;17.15;;;2.30;99.90;;;;;;1885715;75;21073;-88
2023/01/30 04:28:11;;;;;;;24.27;16.75;;;2.30;99.90;;;;;;1886707;75;21091;-88
2023/01/30 04:31:03;;;;;;;23.80;16.97;;;2.30;99.90;;;;;;1904903;75;21120;-88
2023/01/30 04:34:08;;;;;;;27.42;17.65;;;2.30;99.90;;;;;;1897989;75;21173;-88
2023/01/30 04:37:00;;;;;;;25.10;17.57;;;2.30;99.90;;;;;;1875044;75;21120;-88
2023/01/30 04:39:52;;;;;;;26.30;18.07;;;2.40;99.90;;;;;;1886355;75;21172;-89
2023/01/30 04:42:45;;;;;;;26.70;18.15;;;2.40;99.90;;;;;;1887075;75;21164;-88
2023/01/30 04:48:38;;;;;;;26.20;19.02;;;2.40;99.90;;;;;;1976080;72;22249;-89
2023/01/30 04:51:30;;;;;;;26.07;17.75;;;2.30;99.90;;;;;;1929223;73;21132;-89
2023/01/30 04:54:23;;;;;;;25.12;18.40;;;2.20;99.90;;;;;;1932337;73;21146;-89
2023/01/30 04:57:15;;;;;;;25.30;17.90;;;2.20;99.90;;;;;;1869674;76;21087;-88
2023/01/30 05:00:11;;;;;;;27.95;18.82;;;2.20;99.90;;;;;;1939978;73;21094;-88
2023/01/30 05:03:14;;;;;;;25.37;18.15;;;2.20;99.90;;;;;;1921133;73;21067;-88
2023/01/30 05:06:08;;;;;;;26.35;18.20;;;2.10;99.90;;;;;;1928380;73;21199;-88
2023/01/30 05:09:00;;;;;;;25.60;17.65;;;2.20;99.90;;;;;;1932740;73;21557;-87
2023/01/30 05:11:51;;;;;;;25.50;17.82;;;2.20;99.90;;;;;;1917063;75;21159;-88
2023/01/30 05:14:43;;;;;;;25.82;17.32;;;2.20;99.90;;;;;;1857339;76;21110;-88
2023/01/30 05:17:34;;;;;;;24.57;16.60;;;2.20;99.90;;;;;;1951418;73;21121;-88
2023/01/30 05:20:26;;;;;;;26.55;16.82;;;2.30;99.90;;;;;;1951170;73;21169;-88
2023/01/30 05:23:18;;;;;;;23.75;16.37;;;2.30;99.90;;;;;;1936756;73;21160;-89
2023/01/30 05:28:56;;;;;;;22.67;16.20;;;2.30;99.90;;;;;;1951033;72;22051;-88
2023/01/30 05:31:48;;;;;;;23.80;16.87;;;2.30;99.90;;;;;;1846862;77;21196;-88
2023/01/30 05:34:39;;;;;;;25.72;17.27;;;2.40;99.90;;;;;;1850233;77;21071;-88
2023/01/30 05:37:31;;;;;;;25.57;17.90;;;2.40;99.90;;;;;;1859465;77;21114;-88
2023/01/30 05:40:22;;;;;;;25.85;16.50;;;2.30;99.90;;;;;;1837200;78;21110;-88
2023/01/30 05:43:14;;;;;;;26.73;16.90;;;2.30;99.90;;;;;;1884576;76;21103;-89
2023/01/30 05:46:07;;;;;;;24.35;16.20;;;2.20;99.90;;;;;;1884431;76;21116;-89
2023/01/30 05:48:58;;;;;;;24.27;16.60;;;2.20;99.90;;;;;;1906237;75;21115;-89
2023/01/30 05:51:50;;;;;;;21.52;15.80;;;2.20;99.90;;;;;;1888699;75;21124;-88
2023/01/30 05:54:41;;;;;;;24.47;16.57;;;2.20;99.90;;;;;;1896169;75;21230;-88
2023/01/30 05:57:35;;;;;;;22.67;15.78;;;2.20;99.90;;;;;;1884265;76;21142;-88
2023/01/30 06:00:26;;;;;;;24.72;16.87;;;2.20;99.90;;;;;;1895822;75;21180;-89
2023/01/30 06:03:18;;;;;;;21.15;15.25;;;2.20;99.90;;;;;;1916598;75;21098;-89
2023/01/30 06:06:13;;;;;;;21.12;15.78;;;2.20;99.90;;;;;;1913446;75;21105;-88
2023/01/30 06:09:04;;;;;;;27.15;16.35;;;2.20;99.90;;;;;;1898942;75;21398;-88
2023/01/30 06:11:56;;;;;;;25.60;16.17;;;2.20;99.90;;;;;;1897296;75;21176;-89
2023/01/30 06:14:48;;;;;;;21.93;15.43;;;2.20;99.90;;;;;;1895394;75;21107;-88
2023/01/30 06:17:43;;;;;;;23.00;15.68;;;2.10;99.90;;;;;;1891889;75;21132;-88
2023/01/30 06:20:35;;;;;;;22.95;15.95;;;2.10;99.90;;;;;;1884122;76;21120;-88
2023/01/30 06:23:26;;;;;;;21.50;15.05;;;2.10;99.90;;;;;;1899656;75;21126;-88
2023/01/30 06:26:20;;;;;;;22.35;15.78;;;2.10;99.90;;;;;;1895005;75;21148;-87
2023/01/30 06:29:12;;;;;;;24.30;16.05;;;2.20;99.90;;;;;;1902536;74;21208;-90
2023/01/30 06:32:04;;;;;;;22.52;15.53;;;2.30;99.90;;;;;;1904957;74;21093;-88
2023/01/30 06:35:02;;;;;;;24.65;16.48;;;2.40;99.90;;;;;;1893824;76;21062;-89
2023/01/30 06:37:54;;;;;;;22.17;14.95;;;2.40;99.90;;;;;;1907965;74;21247;-88
2023/01/30 06:40:50;;;;;;;21.93;15.20;;;2.30;99.90;;;;;;1904398;74;21114;-89
2023/01/30 06:43:43;;;;;;;21.60;15.15;;;2.30;99.90;;;;;;1921362;74;21175;-88
2023/01/30 06:46:37;;;;;;;24.18;16.37;;;2.30;99.90;;;;;;1915065;74;21099;-90
2023/01/30 06:49:28;;;;;;;22.13;15.68;;;2.30;99.90;;;;;;1908909;74;21125;-88
2023/01/30 06:52:20;;;;;;;22.75;15.60;;;2.30;99.90;;;;;;1892961;76;21066;-89
2023/01/30 06:55:16;;;;;;;23.57;16.85;;;2.30;99.90;;;;;;1915651;74;21381;-88
2023/01/30 06:58:11;;;;;;;23.18;15.78;;;2.30;99.90;;;;;;1894098;76;21633;-89
2023/01/30 07:01:06;;;;;;;23.40;16.32;;;2.20;99.90;;;;;;1891735;76;21195;-90
2023/01/30 07:03:58;;;;;;;21.85;15.30;;;2.20;99.90;;;;;;1892149;74;21181;-90
2023/01/30 07:09:37;;;;;;;22.45;15.50;;;2.30;99.90;;;;;;1953379;72;20167;-89
2023/01/30 07:12:29;;;;;;;21.97;14.90;;;2.40;99.90;;;;;;1873489;76;21099;-89
2023/01/30 07:15:21;;;;;;;21.87;15.43;;;2.40;99.90;;;;;;1888146;75;21079;-88
2023/01/30 07:18:13;;;;;;;25.90;16.07;;;2.50;99.90;;;;;;1882807;75;21091;-89
2023/01/30 07:21:05;;;;;;;22.35;14.70;;;2.50;99.90;;;;;;1883488;75;21107;-88
2023/01/30 07:23:58;;;;;;;23.67;14.78;;;2.50;99.90;;;;;;1883134;75;21118;-89
2023/01/30 07:26:50;;;;;;;20.80;14.75;;;2.50;99.90;;;;;;1905069;75;21592;-87
2023/01/30 07:29:42;;;;;;;20.08;15.00;;;2.60;99.90;;;;;;1872780;76;21099;-89
2023/01/30 07:32:33;;;;;;;21.87;15.25;;;2.60;99.90;;;;;;1893860;75;21173;-88
2023/01/30 07:35:27;;;;;;;22.85;15.70;;;2.60;99.90;;;;;;1893979;75;21117;-89
2023/01/30 07:38:19;;;;;;;21.02;15.05;;;2.60;99.90;;;;;;1891393;75;21315;-88
2023/01/30 07:41:11;;;;;;;28.25;14.80;;;2.70;99.90;;;;;;1886126;75;21087;-88
2023/01/30 07:44:03;;;;;;;22.32;16.48;;;2.70;99.90;;;;;;1882627;75;21115;-88
2023/01/30 07:46:54;;;;;;;25.10;16.30;;;2.70;99.90;;;;;;1880676;75;21172;-88
2023/01/30 07:49:46;;;;;;;23.35;15.75;;;2.70;99.90;;;;;;1872592;75;21431;-89
2023/01/30 07:52:39;;;;;;;23.35;15.60;;;2.70;99.90;;;;;;1872144;76;21178;-88
2023/01/30 07:55:33;;;;;;;24.40;15.90;;;2.70;99.90;;;;;;1872588;75;21100;-88
2023/01/30 07:58:25;;;;;;;24.30;16.27;;;2.60;99.90;;;;;;1878202;75;21618;-89
2023/01/30 08:01:17;;;;;;;25.35;16.90;;;2.70;99.90;;;;;;1883124;75;21083;-88
2023/01/30 08:04:08;;;;;;;28.50;16.10;;;2.60;99.90;;;;;;1887434;75;21157;-88
2023/01/30 08:09:48;;;;;;;25.75;16.00;;;2.60;99.90;;;;;;1945052;72;22177;-88
2023/01/30 08:12:42;;;;;;;23.67;15.18;;;2.60;99.90;;;;;;1917670;75;21106;-88
2023/01/30 08:15:34;;;;;;;21.23;15.15;;;2.60;99.90;;;;;;1862029;76;21129;-88
2023/01/30 08:18:26;;;;;;;22.37;14.95;;;2.60;99.90;;;;;;1865176;76;21142;-89
2023/01/30 08:21:17;;;;;;;21.42;14.58;;;2.60;99.90;;;;;;1950968;73;21086;-88
2023/01/30 08:24:10;;;;;;;21.35;15.25;;;2.60;99.90;;;;;;1951180;73;21569;-88
2023/01/30 08:27:02;;;;;;;22.77;15.60;;;2.70;99.90;;;;;;1930848;73;21131;-89
2023/01/30 08:29:53;;;;;;;24.27;15.58;;;2.70;99.90;;;;;;1917150;75;21102;-88
2023/01/30 08:32:46;;;;;;;26.07;15.78;;;2.70;99.90;;;;;;1917101;75;21091;-88
2023/01/30 08:35:39;;;;;;;25.80;15.13;;;2.70;99.90;;;;;;1917620;75;21109;-88
2023/01/30 08:38:31;;;;;;;20.15;14.53;;;2.70;99.90;;;;;;1917217;75;21591;-89
2023/01/30 08:41:23;;;;;;;21.77;14.78;;;2.80;99.90;;;;;;1917153;75;21160;-88
2023/01/30 08:44:14;;;;;;;22.85;15.08;;;2.80;99.90;;;;;;1929036;73;21083;-89
2023/01/30 08:47:06;;;;;;;22.65;15.68;;;2.80;99.90;;;;;;1928327;73;21051;-88
2023/01/30 08:49:58;;;;;;;21.12;14.63;;;2.90;99.90;;;;;;1927279;73;21123;-88
2023/01/30 08:52:50;;;;;;;22.32;14.03;;;2.90;99.90;;;;;;1916795;75;21373;-87
2023/01/30 08:55:44;;;;;;;23.25;14.70;;;3.00;99.90;;;;;;1917223;75;21128;-88
2023/01/30 08:58:35;;;;;;;26.60;15.83;;;3.00;99.90;;;;;;1917399;75;21071;-88
2023/01/30 09:01:27;;;;;;;24.35;15.35;;;2.90;99.90;;;;;;1917467;75;21185;-88
2023/01/30 09:04:19;;;;;;;24.70;16.25;;;2.90;99.90;;;;;;1916975;75;21102;-88
2023/01/30 09:07:10;;;;;;;27.37;16.85;;;3.00;99.90;;;;;;1917067;75;21134;-88
2023/01/30 09:10:03;;;;;;;22.65;15.15;;;3.00;99.90;;;;;;1868951;76;21217;-88
2023/01/30 09:12:55;;;;;;;26.90;15.78;;;2.90;99.90;;;;;;1838320;77;21135;-89
2023/01/30 09:15:47;;;;;;;29.98;16.15;;;3.00;99.90;;;;;;1879161;75;21144;-88
2023/01/30 09:18:43;;;;;;;28.17;14.68;;;3.10;99.90;;;;;;1868536;77;21202;-88
2023/01/30 09:21:38;;;;;;;25.07;15.70;;;3.20;99.90;;;;;;1831422;78;21152;-88
2023/01/30 09:24:29;;;;;;;23.35;15.03;;;3.20;99.90;;;;;;1946962;73;21666;-89
2023/01/30 09:27:21;;;;;;;22.17;15.35;;;3.20;99.90;;;;;;1947388;73;21121;-89
2023/01/30 09:30:14;;;;;;;26.02;14.93;;;3.20;99.90;;;;;;1916300;74;21134;-88
2023/01/30 09:35:48;;;;;;;25.32;15.83;;;3.30;99.90;;;;;;1945425;72;22208;-89
2023/01/30 09:38:43;;;;;;;25.88;14.85;;;3.30;99.90;;;;;;1917221;75;21588;-89
2023/01/30 09:41:46;;;;;;;24.35;15.93;;;3.40;99.90;;;;;;1936512;73;21071;-88
2023/01/30 09:44:57;;;;;;;25.55;15.98;;;3.30;99.90;;;;;;1914319;75;21102;-88
2023/01/30 09:47:53;;;;;;;25.08;15.70;;;3.30;99.90;;;;;;1912615;75;21110;-88
2023/01/30 09:51:25;;;;;;;22.25;15.25;;;3.20;99.90;;;;;;1922577;73;21160;-90
2023/01/30 09:54:23;;;;;;;18.98;13.00;;;3.30;99.90;;;;;;1917841;75;21086;-89
2023/01/30 10:00:01;;;;;;;16.20;11.90;;;3.00;99.90;;;;;;1957621;72;22226;-89
2023/01/30 10:02:59;;;;;;;16.40;11.70;;;2.80;99.90;;;;;;1904848;75;21586;-89
2023/01/30 10:05:54;;;;;;;15.58;10.78;;;2.80;99.90;;;;;;1884706;75;21157;-89
2023/01/30 10:08:52;;;;;;;20.55;12.80;;;2.70;99.90;;;;;;1887942;75;21048;-87
2023/01/30 10:14:48;;;;;;;17.10;12.63;;;2.80;99.90;;;;;;1946696;72;22140;-88
2023/01/30 10:20:34;;;;;;;18.17;12.43;;;2.70;99.90;;;;;;1953748;72;22669;-88
2023/01/30 10:23:43;;;;;;;14.45;10.13;;;2.70;99.90;;;;;;1917620;75;21505;-88
2023/01/30 10:26:35;;;;;;;16.23;12.45;;;2.70;99.90;;;;;;1901805;75;21091;-87
2023/01/30 10:29:30;;;;;;;18.00;12.45;;;2.70;99.90;;;;;;1916786;75;21082;-87
2023/01/30 10:32:27;;;;;;;17.25;12.50;;;2.90;99.90;;;;;;1917969;75;21099;-87
2023/01/30 10:35:24;;;;;;;17.37;12.00;;;3.10;99.90;;;;;;1917255;75;21124;-88
2023/01/30 10:38:21;;;;;;;17.00;12.40;;;2.90;99.90;;;;;;1897188;75;21589;-87
2023/01/30 10:41:26;;;;;;;17.92;12.13;;;3.00;99.90;;;;;;1899962;75;21213;-89
2023/01/30 10:44:22;;;;;;;16.80;12.18;;;3.20;99.90;;;;;;1898043;75;21107;-88
2023/01/30 10:47:37;;;;;;;17.57;11.70;;;3.20;99.90;;;;;;1894847;75;21120;-87
2023/01/30 10:50:55;;;;;;;15.90;11.80;;;3.10;99.90;;;;;;1895103;75;21172;-88
2023/01/30 10:53:51;;;;;;;15.78;10.78;;;2.90;99.90;;;;;;1895040;75;21223;-89
2023/01/30 10:56:46;;;;;;;17.23;12.10;;;2.90;99.90;;;;;;1894845;75;21123;-89
2023/01/30 11:02:41;;;;;;;14.87;11.00;;;3.00;99.90;;;;;;1976216;72;22198;-88
2023/01/30 11:05:42;;;;;;;17.55;11.63;;;3.00;99.90;;;;;;1950804;73;21111;-88
2023/01/30 11:08:36;;;;;;;15.75;11.25;;;3.20;99.90;;;;;;1917005;75;21107;-88
2023/01/30 11:11:31;;;;;;;16.42;10.98;;;3.20;99.90;;;;;;1916709;75;21195;-88
2023/01/30 11:14:23;;;;;;;13.95;10.90;;;3.20;99.90;;;;;;1879355;76;21169;-88
2023/01/30 11:17:18;;;;;;;13.35;9.48;;;3.20;99.90;;;;;;1929663;73;21109;-90
2023/01/30 11:20:15;;;;;;;12.85;9.20;;;3.10;99.90;;;;;;1916927;75;21090;-89
2023/01/30 11:23:09;;;;;;;15.70;10.90;;;3.00;99.90;;;;;;1916737;75;21109;-88
2023/01/30 11:26:04;;;;;;;12.28;8.35;;;3.00;99.90;;;;;;1939892;73;21175;-88
2023/01/30 11:32:11;;;;;;;14.65;10.75;;;2.90;99.90;;;;;;1958789;72;22318;-88
2023/01/30 11:35:27;;;;;;;14.58;10.78;;;3.10;99.90;;;;;;1886683;75;21123;-88
2023/01/30 11:38:24;;;;;;;15.10;9.83;;;3.20;99.90;;;;;;1872481;76;21744;-88
2023/01/30 11:41:21;;;;;;;16.43;8.80;;;3.20;99.90;;;;;;1888719;75;21165;-88
2023/01/30 11:44:13;;;;;;;10.95;6.55;;;3.20;99.90;;;;;;1872779;76;21091;-88
2023/01/30 11:47:09;;;;;;;13.13;9.33;;;3.10;99.90;;;;;;1894379;75;21159;-88
2023/01/30 11:50:01;;;;;;;9.78;6.95;;;2.90;99.90;;;;;;1893979;75;21139;-88
2023/01/30 11:52:55;;;;;;;10.80;7.25;;;3.10;99.90;;;;;;1892464;75;21111;-88
2023/01/30 11:55:50;;;;;;;11.35;7.97;;;3.00;99.90;;;;;;1889513;75;21108;-88
2023/01/30 11:58:47;;;;;;;12.82;9.30;;;2.90;99.90;;;;;;1872853;75;21118;-89
2023/01/30 12:01:39;;;;;;;13.65;10.10;;;3.10;99.90;;;;;;1900213;75;21168;-89
2023/01/30 12:04:35;;;;;;;13.25;9.48;;;3.10;99.90;;;;;;1883364;75;21107;-88
2023/01/30 12:07:28;;;;;;;13.03;9.33;;;3.10;99.90;;;;;;1887564;75;21197;-89
2023/01/30 12:10:29;;;;;;;11.97;8.83;;;3.20;99.90;;;;;;1885940;75;21140;-89
2023/01/30 12:13:25;;;;;;;12.98;9.53;;;3.20;99.90;;;;;;1872574;75;21061;-88
2023/01/30 12:16:22;;;;;;;18.50;10.25;;;3.20;99.90;;;;;;1878905;75;21118;-88
2023/01/30 12:22:06;;;;;;;9.78;6.67;;;3.40;99.90;;;;;;1957495;73;22139;-89
2023/01/30 12:25:04;;;;;;;12.20;8.50;;;3.40;99.90;;;;;;1898854;75;21114;-89
2023/01/30 12:28:03;;;;;;;12.55;9.00;;;3.40;99.90;;;;;;1895992;75;21175;-88
2023/01/30 12:30:58;;;;;;;13.48;8.43;;;3.30;99.90;;;;;;1911111;75;21526;-89
2023/01/30 12:33:49;;;;;;;12.03;8.98;;;3.30;99.90;;;;;;1870069;76;21551;-89
2023/01/30 12:36:47;;;;;;;12.82;9.63;;;3.30;99.90;;;;;;1904108;75;21109;-89
2023/01/30 12:39:45;;;;;;;13.78;8.73;;;3.30;99.90;;;;;;1900047;75;21156;-89
2023/01/30 12:43:05;;;;;;;12.80;9.28;;;3.30;99.90;;;;;;1896518;75;21094;-89
2023/01/30 12:46:02;;;;;;;11.63;8.58;;;3.40;99.90;;;;;;1897065;75;21052;-88
2023/01/30 12:49:03;;;;;;;12.75;9.65;;;3.50;99.90;;;;;;1887196;75;21150;-89
2023/01/30 12:52:04;;;;;;;11.35;8.78;;;3.60;99.90;;;;;;1907135;75;21124;-90
2023/01/30 12:57:44;;;;;;;12.68;9.18;;;3.60;99.90;;;;;;1938396;72;22277;-89
2023/01/30 13:00:47;;;;;;;11.50;8.45;;;3.70;99.90;;;;;;1899106;75;21112;-90
2023/01/30 13:03:43;;;;;;;11.60;8.50;;;3.70;99.90;;;;;;1884569;76;21164;-89
2023/01/30 13:07:05;;;;;;;12.73;8.45;;;3.70;99.90;;;;;;1914312;75;21110;-89
2023/01/30 13:10:14;;;;;;;12.95;8.70;;;3.60;99.90;;;;;;1884201;76;21203;-88
2023/01/30 13:13:13;;;;;;;12.55;8.38;;;3.70;99.90;;;;;;1916379;75;21095;-89
2023/01/30 13:16:08;;;;;;;10.93;8.23;;;3.70;99.90;;;;;;1889897;75;21549;-89
2023/01/30 13:21:46;;;;;;;11.95;8.78;;;3.80;99.90;;;;;;1957975;72;22175;-89
2023/01/30 13:24:52;;;;;;;11.70;9.40;;;3.80;99.90;;;;;;1895334;75;21099;-88
2023/01/30 13:27:47;;;;;;;10.10;7.80;;;3.80;99.90;;;;;;1886160;75;22032;-88
2023/01/30 13:30:41;;;;;;;11.30;8.20;;;3.80;99.90;;;;;;1910851;75;21185;-87
2023/01/30 13:33:36;;;;;;;10.95;7.92;;;3.90;99.90;;;;;;1895436;75;21091;-89
2023/01/30 13:36:31;;;;;;;9.93;7.30;;;3.90;99.90;;;;;;1900282;75;21099;-88
2023/01/30 13:39:28;;;;;;;12.33;7.90;;;3.90;99.90;;;;;;1884390;75;21099;-88
2023/01/30 13:42:27;;;;;;;10.77;6.87;;;3.90;99.90;;;;;;1884555;76;21188;-89
2023/01/30 13:45:20;;;;;;;;;;;4.00;99.90;;;;;;1909200;75;21125;-88
2023/01/30 13:48:22;;;;;;;12.73;8.15;;;4.00;99.90;;;;;;1906106;75;20128;-89
2023/01/30 13:51:42;;;;;;;10.95;7.97;;;4.00;99.90;;;;;;1903940;75;21613;-89
2023/01/30 13:54:55;;;;;;;12.15;8.83;;;3.90;99.90;;;;;;1904062;75;21184;-88
2023/01/30 13:57:53;;;;;;;11.48;7.95;;;4.00;99.90;;;;;;1884225;76;21051;-88
2023/01/30 14:00:55;;;;;;;9.28;7.15;;;3.90;99.90;;;;;;1884632;76;21114;-88
2023/01/30 14:03:50;;;;;;;9.83;7.25;;;4.00;99.90;;;;;;1897484;75;21051;-89
2023/01/30 14:06:48;;;;;;;8.93;6.17;;;4.00;99.90;;;;;;1917762;75;21122;-88
2023/01/30 14:09:43;;;;;;;8.40;5.15;;;4.10;99.90;;;;;;1913048;75;21123;-89
2023/01/30 14:12:39;;;;;;;12.63;8.40;;;4.00;99.90;;;;;;1869642;76;21107;-89
2023/01/30 14:15:30;;;;;;;11.38;8.35;;;4.00;99.90;;;;;;1901790;75;21160;-88
2023/01/30 14:18:25;;;;;;;11.88;7.00;;;4.00;99.90;;;;;;1896859;75;21047;-90
2023/01/30 14:21:20;;;;;;;8.68;6.53;;;4.10;99.90;;;;;;1889846;75;21163;-89
2023/01/30 14:27:03;;;;;;;9.83;7.40;;;4.20;99.90;;;;;;1957338;72;22272;-90
2023/01/30 14:29:58;;;;;;;7.70;5.90;;;4.20;99.90;;;;;;1917440;75;21149;-89
2023/01/30 14:32:57;;;;;;;7.97;4.65;;;4.10;99.90;;;;;;1895309;75;21059;-89
2023/01/30 14:35:51;;;;;;;8.08;5.50;;;4.20;99.90;;;;;;1895199;75;21097;-88
2023/01/30 14:39:39;;;;;;;11.03;7.15;;;4.20;99.90;;;;;;1911758;73;21371;-87
2023/01/30 14:42:33;;;;;;;9.53;7.20;;;4.20;99.90;;;;;;1895614;75;21695;-89
2023/01/30 14:48:42;;;;;;;9.15;7.10;;;4.30;99.90;;;;;;1955726;72;22170;-88
2023/01/30 14:51:38;;;;;;;8.13;6.17;;;4.30;99.90;;;;;;1906303;75;21526;-89
2023/01/30 14:54:45;;;;;;;8.40;5.70;;;4.30;99.90;;;;;;1889318;75;21140;-87
2023/01/30 15:00:26;;;;;;;7.65;5.95;;;4.30;99.90;;;;;;1941260;72;22659;-88
2023/01/30 15:03:21;;;;;;;8.88;7.28;;;4.30;99.90;;;;;;1917471;74;21615;-87
2023/01/30 15:06:14;;;;;;;8.85;6.75;;;4.40;99.90;;;;;;1924423;74;21256;-87
2023/01/30 15:09:10;;;;;;;8.58;6.20;;;4.30;99.90;;;;;;1920353;74;21141;-87
2023/01/30 15:12:16;;;;;;;8.50;6.33;;;4.50;99.90;;;;;;1902522;75;21191;-88
2023/01/30 15:15:15;;;;;;;9.58;5.83;;;4.50;99.90;;;;;;1918818;74;21116;-88
2023/01/30 15:18:25;;;;;;;9.43;6.72;;;4.50;99.90;;;;;;1930431;74;21102;-87
2023/01/30 15:21:28;;;;;;;10.00;7.17;;;4.40;99.90;;;;;;1908350;74;21243;-87
2023/01/30 15:24:53;;;;;;;9.98;6.42;;;4.30;99.90;;;;;;1927314;74;21648;-88
2023/01/30 15:27:55;;;;;;;10.43;7.05;;;4.30;99.90;;;;;;1915535;74;21133;-86
2023/01/30 15:30:58;;;;;;;8.73;5.00;;;4.20;99.90;;;;;;1931650;74;21058;-88
2023/01/30 15:33:52;;;;;;;8.68;7.12;;;4.20;99.90;;;;;;1932064;74;21188;-88
2023/01/30 15:36:49;;;;;;;10.95;7.20;;;4.20;99.90;;;;;;1927887;74;21159;-87
2023/01/30 15:39:41;;;;;;;9.75;7.12;;;4.20;99.90;;;;;;1919984;74;21089;-88
2023/01/30 15:42:38;;;;;;;8.35;6.30;;;4.20;99.90;;;;;;1916548;75;21204;-89
2023/01/30 15:45:39;;;;;;;11.20;6.47;;;4.20;99.90;;;;;;1887939;75;21075;-91
2023/01/30 15:48:38;;;;;;;8.10;6.50;;;4.20;99.90;;;;;;1890910;74;21098;-92
2023/01/30 15:51:34;;;;;;;9.68;6.75;;;4.20;99.90;;;;;;1936581;74;21091;-92
2023/01/30 15:54:26;;;;;;;8.83;6.05;;;4.20;99.90;;;;;;1930451;74;21101;-92
2023/01/30 15:57:25;;;;;;;10.85;6.97;;;4.20;99.90;;;;;;1885464;76;21086;-91
2023/01/30 16:00:27;;;;;;;8.65;6.80;;;4.20;99.90;;;;;;1876048;76;21142;-92
2023/01/30 16:03:22;;;;;;;11.57;7.17;;;4.10;99.90;;;;;;1870989;77;21113;-91
2023/01/30 16:06:27;;;;;;;8.68;6.75;;;4.10;99.90;;;;;;1909609;74;21176;-91
2023/01/30 16:12:41;;;;;;;6.53;5.25;;;4.10;99.90;;;;;;2101466;68;22169;-92
2023/01/30 16:15:37;;;;;;;9.00;7.33;;;4.10;99.90;;;;;;2049660;69;21131;-92
2023/01/30 16:18:33;;;;;;;7.83;6.35;;;4.10;99.90;;;;;;2032450;70;21110;-91
2023/01/30 16:21:27;;;;;;;7.37;4.92;;;4.10;99.90;;;;;;2044403;69;21047;-90